sensor_id;sensor_type;location;lat;lon;timestamp;P1;durP1;ratioP1;P2;durP2;ratioP2
21014;SDS011;19207;-23.482;-46.500;2023-04-06T00:00:24;31.48;;;13.75;;
21014;SDS011;19207;-23.482;-46.500;2023-04-06T00:03:16;39.95;;;13.73;;
21014;SDS011;19207;-23.482;-46.500;2023-04-06T00:06:04;35.08;;;12.23;;
21014;SDS011;19207;-23.482;-46.500;2023-04-06T00:08:53;40.58;;;12.43;;
21014;SDS011;19207;-23.482;-46.500;2023-04-06T00:11:46;24.48;;;10.65;;
21014;SDS011;19207;-23.482;-46.500;2023-04-06T00:14:35;35.78;;;12.50;;
21014;SDS011;19207;-23.482;-46.500;2023-04-06T00:17:29;27.10;;;11.40;;
21014;SDS011;19207;-23.482;-46.500;2023-04-06T00:20:27;36.60;;;11.65;;
21014;SDS011;19207;-23.482;-46.500;2023-04-06T00:23:17;28.83;;;10.70;;
21014;SDS011;19207;-23.482;-46.500;2023-04-06T00:26:10;30.92;;;10.15;;
21014;SDS011;19207;-23.482;-46.500;2023-04-06T00:29:02;35.28;;;10.20;;
21014;SDS011;19207;-23.482;-46.500;2023-04-06T00:31:53;28.50;;;10.55;;
21014;SDS011;19207;-23.482;-46.500;2023-04-06T00:34:51;27.40;;;8.95;;
21014;SDS011;19207;-23.482;-46.500;2023-04-06T00:37:54;19.73;;;8.18;;
21014;SDS011;19207;-23.482;-46.500;2023-04-06T00:40:43;26.17;;;8.55;;
21014;SDS011;19207;-23.482;-46.500;2023-04-06T00:43:46;22.55;;;8.75;;
21014;SDS011;19207;-23.482;-46.500;2023-04-06T00:46:39;21.50;;;8.65;;
21014;SDS011;19207;-23.482;-46.500;2023-04-06T00:49:34;25.55;;;9.05;;
21014;SDS011;19207;-23.482;-46.500;2023-04-06T00:52:24;24.67;;;9.93;;
21014;SDS011;19207;-23.482;-46.500;2023-04-06T00:55:21;24.00;;;8.90;;
21014;SDS011;19207;-23.482;-46.500;2023-04-06T00:58:25;28.33;;;9.40;;
21014;SDS011;19207;-23.482;-46.500;2023-04-06T01:01:36;25.15;;;9.05;;
21014;SDS011;19207;-23.482;-46.500;2023-04-06T01:04:27;19.83;;;9.40;;
21014;SDS011;19207;-23.482;-46.500;2023-04-06T01:07:19;26.60;;;9.52;;
21014;SDS011;19207;-23.482;-46.500;2023-04-06T01:10:21;23.10;;;8.18;;
21014;SDS011;19207;-23.482;-46.500;2023-04-06T01:13:18;30.98;;;8.38;;
21014;SDS011;19207;-23.482;-46.500;2023-04-06T01:16:10;19.50;;;7.53;;
21014;SDS011;19207;-23.482;-46.500;2023-04-06T01:19:12;19.70;;;7.78;;
21014;SDS011;19207;-23.482;-46.500;2023-04-06T01:22:04;18.48;;;7.70;;
21014;SDS011;19207;-23.482;-46.500;2023-04-06T01:24:52;20.52;;;7.65;;
21014;SDS011;19207;-23.482;-46.500;2023-04-06T01:27:48;23.17;;;7.53;;
21014;SDS011;19207;-23.482;-46.500;2023-04-06T01:30:41;21.83;;;8.65;;
21014;SDS011;19207;-23.482;-46.500;2023-04-06T01:33:32;26.90;;;8.43;;
21014;SDS011;19207;-23.482;-46.500;2023-04-06T01:36:24;21.33;;;8.70;;
21014;SDS011;19207;-23.482;-46.500;2023-04-06T01:39:14;20.17;;;9.68;;
21014;SDS011;19207;-23.482;-46.500;2023-04-06T01:45:19;24.58;;;9.02;;
21014;SDS011;19207;-23.482;-46.500;2023-04-06T01:48:09;30.45;;;9.05;;
21014;SDS011;19207;-23.482;-46.500;2023-04-06T01:51:01;23.05;;;8.60;;
21014;SDS011;19207;-23.482;-46.500;2023-04-06T01:53:52;29.25;;;8.30;;
21014;SDS011;19207;-23.482;-46.500;2023-04-06T01:56:42;20.58;;;8.10;;
21014;SDS011;19207;-23.482;-46.500;2023-04-06T01:59:37;22.92;;;8.40;;
21014;SDS011;19207;-23.482;-46.500;2023-04-06T02:02:26;24.65;;;8.27;;
21014;SDS011;19207;-23.482;-46.500;2023-04-06T02:05:19;28.20;;;7.78;;
21014;SDS011;19207;-23.482;-46.500;2023-04-06T02:08:09;18.70;;;8.30;;
21014;SDS011;19207;-23.482;-46.500;2023-04-06T02:11:09;21.58;;;8.48;;
21014;SDS011;19207;-23.482;-46.500;2023-04-06T02:14:01;21.25;;;7.87;;
21014;SDS011;19207;-23.482;-46.500;2023-04-06T02:16:58;22.10;;;8.50;;
21014;SDS011;19207;-23.482;-46.500;2023-04-06T02:19:48;22.77;;;9.30;;
21014;SDS011;19207;-23.482;-46.500;2023-04-06T02:22:48;26.70;;;9.18;;
21014;SDS011;19207;-23.482;-46.500;2023-04-06T02:25:39;21.62;;;9.35;;
21014;SDS011;19207;-23.482;-46.500;2023-04-06T02:28:35;26.77;;;9.15;;
21014;SDS011;19207;-23.482;-46.500;2023-04-06T02:31:39;26.50;;;9.02;;
21014;SDS011;19207;-23.482;-46.500;2023-04-06T02:34:28;23.95;;;9.65;;
21014;SDS011;19207;-23.482;-46.500;2023-04-06T02:37:23;28.80;;;9.68;;
21014;SDS011;19207;-23.482;-46.500;2023-04-06T02:40:14;26.33;;;10.30;;
21014;SDS011;19207;-23.482;-46.500;2023-04-06T02:43:11;31.62;;;11.18;;
21014;SDS011;19207;-23.482;-46.500;2023-04-06T02:46:10;38.10;;;11.85;;
21014;SDS011;19207;-23.482;-46.500;2023-04-06T02:49:03;38.67;;;12.20;;
21014;SDS011;19207;-23.482;-46.500;2023-04-06T02:51:52;36.33;;;14.43;;
21014;SDS011;19207;-23.482;-46.500;2023-04-06T02:54:41;40.65;;;14.07;;
21014;SDS011;19207;-23.482;-46.500;2023-04-06T02:57:36;38.67;;;14.77;;
21014;SDS011;19207;-23.482;-46.500;2023-04-06T03:00:28;41.25;;;13.68;;
21014;SDS011;19207;-23.482;-46.500;2023-04-06T03:03:16;34.13;;;13.98;;
21014;SDS011;19207;-23.482;-46.500;2023-04-06T03:06:09;35.92;;;14.60;;
21014;SDS011;19207;-23.482;-46.500;2023-04-06T03:09:00;35.15;;;14.02;;
21014;SDS011;19207;-23.482;-46.500;2023-04-06T03:11:50;40.17;;;14.40;;
21014;SDS011;19207;-23.482;-46.500;2023-04-06T03:14:54;43.00;;;15.48;;
21014;SDS011;19207;-23.482;-46.500;2023-04-06T03:17:53;36.97;;;16.12;;
21014;SDS011;19207;-23.482;-46.500;2023-04-06T03:20:55;50.22;;;16.80;;
21014;SDS011;19207;-23.482;-46.500;2023-04-06T03:23:54;42.30;;;16.15;;
21014;SDS011;19207;-23.482;-46.500;2023-04-06T03:26:44;54.08;;;17.25;;
21014;SDS011;19207;-23.482;-46.500;2023-04-06T03:29:35;55.92;;;21.23;;
21014;SDS011;19207;-23.482;-46.500;2023-04-06T03:32:43;68.68;;;20.90;;
21014;SDS011;19207;-23.482;-46.500;2023-04-06T03:35:49;62.67;;;21.10;;
21014;SDS011;19207;-23.482;-46.500;2023-04-06T03:38:51;48.33;;;19.48;;
21014;SDS011;19207;-23.482;-46.500;2023-04-06T03:41:51;47.42;;;19.25;;
21014;SDS011;19207;-23.482;-46.500;2023-04-06T03:44:53;42.90;;;16.73;;
21014;SDS011;19207;-23.482;-46.500;2023-04-06T03:47:47;54.63;;;16.35;;
21014;SDS011;19207;-23.482;-46.500;2023-04-06T03:50:45;30.73;;;13.90;;
21014;SDS011;19207;-23.482;-46.500;2023-04-06T03:53:42;46.42;;;14.95;;
21014;SDS011;19207;-23.482;-46.500;2023-04-06T03:56:55;32.20;;;13.57;;
21014;SDS011;19207;-23.482;-46.500;2023-04-06T03:59:45;34.83;;;12.37;;
21014;SDS011;19207;-23.482;-46.500;2023-04-06T04:02:36;29.35;;;12.95;;
21014;SDS011;19207;-23.482;-46.500;2023-04-06T04:05:27;31.80;;;11.35;;
21014;SDS011;19207;-23.482;-46.500;2023-04-06T04:08:30;33.55;;;12.20;;
21014;SDS011;19207;-23.482;-46.500;2023-04-06T04:11:25;39.63;;;14.57;;
21014;SDS011;19207;-23.482;-46.500;2023-04-06T04:14:26;45.83;;;14.75;;
21014;SDS011;19207;-23.482;-46.500;2023-04-06T04:17:18;49.35;;;14.60;;
21014;SDS011;19207;-23.482;-46.500;2023-04-06T04:20:30;37.88;;;14.82;;
21014;SDS011;19207;-23.482;-46.500;2023-04-06T04:23:22;43.80;;;14.63;;
21014;SDS011;19207;-23.482;-46.500;2023-04-06T04:26:11;46.03;;;16.17;;
21014;SDS011;19207;-23.482;-46.500;2023-04-06T04:29:12;35.10;;;15.93;;
21014;SDS011;19207;-23.482;-46.500;2023-04-06T04:32:05;43.03;;;15.27;;
21014;SDS011;19207;-23.482;-46.500;2023-04-06T04:34:53;40.40;;;16.80;;
21014;SDS011;19207;-23.482;-46.500;2023-04-06T04:37:48;44.25;;;17.25;;
21014;SDS011;19207;-23.482;-46.500;2023-04-06T04:40:44;45.97;;;16.67;;
21014;SDS011;19207;-23.482;-46.500;2023-04-06T04:43:34;41.90;;;16.50;;
21014;SDS011;19207;-23.482;-46.500;2023-04-06T04:46:35;46.83;;;16.48;;
21014;SDS011;19207;-23.482;-46.500;2023-04-06T04:49:28;35.88;;;14.63;;
21014;SDS011;19207;-23.482;-46.500;2023-04-06T04:52:22;42.58;;;16.52;;
21014;SDS011;19207;-23.482;-46.500;2023-04-06T04:55:13;58.87;;;21.73;;
21014;SDS011;19207;-23.482;-46.500;2023-04-06T04:58:05;49.92;;;21.20;;
21014;SDS011;19207;-23.482;-46.500;2023-04-06T05:01:04;63.38;;;23.35;;
21014;SDS011;19207;-23.482;-46.500;2023-04-06T05:04:04;60.42;;;22.55;;
21014;SDS011;19207;-23.482;-46.500;2023-04-06T05:07:05;71.95;;;23.92;;
21014;SDS011;19207;-23.482;-46.500;2023-04-06T05:10:08;62.50;;;24.15;;
21014;SDS011;19207;-23.482;-46.500;2023-04-06T05:12:59;60.88;;;25.12;;
21014;SDS011;19207;-23.482;-46.500;2023-04-06T05:15:51;62.92;;;21.73;;
21014;SDS011;19207;-23.482;-46.500;2023-04-06T05:18:55;50.12;;;17.60;;
21014;SDS011;19207;-23.482;-46.500;2023-04-06T05:21:46;47.83;;;17.45;;
21014;SDS011;19207;-23.482;-46.500;2023-04-06T05:24:38;41.35;;;15.98;;
21014;SDS011;19207;-23.482;-46.500;2023-04-06T05:27:29;37.50;;;15.40;;
21014;SDS011;19207;-23.482;-46.500;2023-04-06T05:30:23;43.85;;;16.90;;
21014;SDS011;19207;-23.482;-46.500;2023-04-06T05:33:17;39.85;;;15.48;;
21014;SDS011;19207;-23.482;-46.500;2023-04-06T05:36:11;37.38;;;13.80;;
21014;SDS011;19207;-23.482;-46.500;2023-04-06T05:39:03;39.10;;;14.85;;
21014;SDS011;19207;-23.482;-46.500;2023-04-06T05:41:55;40.85;;;13.50;;
21014;SDS011;19207;-23.482;-46.500;2023-04-06T05:44:47;32.17;;;14.18;;
21014;SDS011;19207;-23.482;-46.500;2023-04-06T05:47:38;36.42;;;12.88;;
21014;SDS011;19207;-23.482;-46.500;2023-04-06T05:50:27;33.78;;;13.45;;
21014;SDS011;19207;-23.482;-46.500;2023-04-06T05:53:21;30.23;;;13.80;;
21014;SDS011;19207;-23.482;-46.500;2023-04-06T05:56:14;37.25;;;13.65;;
21014;SDS011;19207;-23.482;-46.500;2023-04-06T05:59:06;39.90;;;14.70;;
21014;SDS011;19207;-23.482;-46.500;2023-04-06T06:01:58;49.33;;;14.93;;
21014;SDS011;19207;-23.482;-46.500;2023-04-06T06:04:55;35.97;;;15.27;;
21014;SDS011;19207;-23.482;-46.500;2023-04-06T06:07:50;48.55;;;15.68;;
21014;SDS011;19207;-23.482;-46.500;2023-04-06T06:10:42;47.80;;;15.60;;
21014;SDS011;19207;-23.482;-46.500;2023-04-06T06:13:40;41.10;;;15.52;;
21014;SDS011;19207;-23.482;-46.500;2023-04-06T06:16:38;48.28;;;16.37;;
21014;SDS011;19207;-23.482;-46.500;2023-04-06T06:19:35;44.42;;;13.55;;
21014;SDS011;19207;-23.482;-46.500;2023-04-06T06:22:25;59.05;;;15.20;;
21014;SDS011;19207;-23.482;-46.500;2023-04-06T06:25:15;42.78;;;14.73;;
21014;SDS011;19207;-23.482;-46.500;2023-04-06T06:28:06;42.92;;;12.27;;
21014;SDS011;19207;-23.482;-46.500;2023-04-06T06:30:55;45.72;;;12.55;;
21014;SDS011;19207;-23.482;-46.500;2023-04-06T06:33:46;42.17;;;11.60;;
21014;SDS011;19207;-23.482;-46.500;2023-04-06T06:36:37;44.75;;;12.90;;
21014;SDS011;19207;-23.482;-46.500;2023-04-06T06:39:37;36.15;;;12.07;;
21014;SDS011;19207;-23.482;-46.500;2023-04-06T06:42:37;37.70;;;12.75;;
21014;SDS011;19207;-23.482;-46.500;2023-04-06T06:45:26;35.80;;;12.05;;
21014;SDS011;19207;-23.482;-46.500;2023-04-06T06:48:35;41.80;;;11.45;;
21014;SDS011;19207;-23.482;-46.500;2023-04-06T06:51:28;31.55;;;11.38;;
21014;SDS011;19207;-23.482;-46.500;2023-04-06T06:54:20;29.60;;;10.82;;
21014;SDS011;19207;-23.482;-46.500;2023-04-06T06:57:12;28.45;;;10.63;;
21014;SDS011;19207;-23.482;-46.500;2023-04-06T07:00:02;27.52;;;9.93;;
21014;SDS011;19207;-23.482;-46.500;2023-04-06T07:03:01;34.85;;;10.40;;
21014;SDS011;19207;-23.482;-46.500;2023-04-06T07:05:56;34.80;;;9.95;;
21014;SDS011;19207;-23.482;-46.500;2023-04-06T07:08:54;38.13;;;10.77;;
21014;SDS011;19207;-23.482;-46.500;2023-04-06T07:11:44;27.08;;;9.55;;
21014;SDS011;19207;-23.482;-46.500;2023-04-06T07:14:38;22.60;;;9.00;;
21014;SDS011;19207;-23.482;-46.500;2023-04-06T07:17:28;37.15;;;10.27;;
21014;SDS011;19207;-23.482;-46.500;2023-04-06T07:20:19;28.38;;;10.63;;
21014;SDS011;19207;-23.482;-46.500;2023-04-06T07:23:15;31.37;;;10.90;;
21014;SDS011;19207;-23.482;-46.500;2023-04-06T07:26:06;29.25;;;11.48;;
21014;SDS011;19207;-23.482;-46.500;2023-04-06T07:28:58;27.73;;;11.95;;
21014;SDS011;19207;-23.482;-46.500;2023-04-06T07:31:49;37.17;;;12.98;;
21014;SDS011;19207;-23.482;-46.500;2023-04-06T07:34:38;32.65;;;14.02;;
21014;SDS011;19207;-23.482;-46.500;2023-04-06T07:37:27;38.17;;;13.52;;
21014;SDS011;19207;-23.482;-46.500;2023-04-06T07:40:19;42.35;;;14.98;;
21014;SDS011;19207;-23.482;-46.500;2023-04-06T07:43:06;37.50;;;14.32;;
21014;SDS011;19207;-23.482;-46.500;2023-04-06T07:45:53;37.53;;;15.07;;
21014;SDS011;19207;-23.482;-46.500;2023-04-06T07:48:42;43.65;;;15.73;;
21014;SDS011;19207;-23.482;-46.500;2023-04-06T07:51:29;40.42;;;16.02;;
21014;SDS011;19207;-23.482;-46.500;2023-04-06T07:54:16;46.70;;;16.92;;
21014;SDS011;19207;-23.482;-46.500;2023-04-06T07:57:03;50.47;;;19.67;;
21014;SDS011;19207;-23.482;-46.500;2023-04-06T07:59:50;57.05;;;22.65;;
21014;SDS011;19207;-23.482;-46.500;2023-04-06T08:02:37;63.72;;;20.95;;
21014;SDS011;19207;-23.482;-46.500;2023-04-06T08:05:24;52.10;;;20.10;;
21014;SDS011;19207;-23.482;-46.500;2023-04-06T08:08:11;52.55;;;20.23;;
21014;SDS011;19207;-23.482;-46.500;2023-04-06T08:10:57;52.78;;;19.08;;
21014;SDS011;19207;-23.482;-46.500;2023-04-06T08:13:44;46.92;;;18.08;;
21014;SDS011;19207;-23.482;-46.500;2023-04-06T08:16:31;48.83;;;19.08;;
21014;SDS011;19207;-23.482;-46.500;2023-04-06T08:19:18;55.12;;;19.12;;
21014;SDS011;19207;-23.482;-46.500;2023-04-06T08:22:05;54.03;;;20.77;;
21014;SDS011;19207;-23.482;-46.500;2023-04-06T08:24:52;47.08;;;18.77;;
21014;SDS011;19207;-23.482;-46.500;2023-04-06T08:27:40;44.47;;;17.17;;
21014;SDS011;19207;-23.482;-46.500;2023-04-06T08:30:27;54.85;;;18.75;;
21014;SDS011;19207;-23.482;-46.500;2023-04-06T08:33:14;50.72;;;18.37;;
21014;SDS011;19207;-23.482;-46.500;2023-04-06T08:36:06;42.90;;;17.35;;
21014;SDS011;19207;-23.482;-46.500;2023-04-06T08:38:53;50.03;;;18.27;;
21014;SDS011;19207;-23.482;-46.500;2023-04-06T08:41:43;49.17;;;18.67;;
21014;SDS011;19207;-23.482;-46.500;2023-04-06T08:44:31;50.58;;;17.98;;
21014;SDS011;19207;-23.482;-46.500;2023-04-06T08:47:18;47.13;;;18.98;;
21014;SDS011;19207;-23.482;-46.500;2023-04-06T08:50:05;55.40;;;19.12;;
21014;SDS011;19207;-23.482;-46.500;2023-04-06T08:52:57;41.72;;;17.42;;
21014;SDS011;19207;-23.482;-46.500;2023-04-06T08:55:43;48.13;;;17.35;;
21014;SDS011;19207;-23.482;-46.500;2023-04-06T08:58:35;47.95;;;14.55;;
21014;SDS011;19207;-23.482;-46.500;2023-04-06T09:01:25;39.20;;;14.98;;
21014;SDS011;19207;-23.482;-46.500;2023-04-06T09:04:12;33.33;;;13.25;;
21014;SDS011;19207;-23.482;-46.500;2023-04-06T09:06:59;37.45;;;12.88;;
21014;SDS011;19207;-23.482;-46.500;2023-04-06T09:09:46;38.17;;;12.63;;
21014;SDS011;19207;-23.482;-46.500;2023-04-06T09:12:33;32.92;;;12.00;;
21014;SDS011;19207;-23.482;-46.500;2023-04-06T09:15:20;29.12;;;11.50;;
21014;SDS011;19207;-23.482;-46.500;2023-04-06T09:18:07;28.92;;;11.50;;
21014;SDS011;19207;-23.482;-46.500;2023-04-06T09:21:00;31.17;;;10.82;;
21014;SDS011;19207;-23.482;-46.500;2023-04-06T09:23:57;31.12;;;12.80;;
21014;SDS011;19207;-23.482;-46.500;2023-04-06T09:26:45;38.35;;;13.18;;
21014;SDS011;19207;-23.482;-46.500;2023-04-06T09:29:32;46.05;;;15.25;;
21014;SDS011;19207;-23.482;-46.500;2023-04-06T09:32:20;48.63;;;17.05;;
21014;SDS011;19207;-23.482;-46.500;2023-04-06T09:35:07;43.63;;;15.88;;
21014;SDS011;19207;-23.482;-46.500;2023-04-06T09:37:54;51.25;;;17.55;;
21014;SDS011;19207;-23.482;-46.500;2023-04-06T09:40:48;48.38;;;17.42;;
21014;SDS011;19207;-23.482;-46.500;2023-04-06T09:43:35;54.45;;;20.33;;
21014;SDS011;19207;-23.482;-46.500;2023-04-06T09:46:22;53.67;;;22.92;;
21014;SDS011;19207;-23.482;-46.500;2023-04-06T09:49:10;57.65;;;20.58;;
21014;SDS011;19207;-23.482;-46.500;2023-04-06T09:51:58;57.20;;;21.58;;
21014;SDS011;19207;-23.482;-46.500;2023-04-06T09:54:45;65.82;;;20.37;;
21014;SDS011;19207;-23.482;-46.500;2023-04-06T09:57:36;43.15;;;18.48;;
21014;SDS011;19207;-23.482;-46.500;2023-04-06T10:00:24;41.80;;;14.40;;
21014;SDS011;19207;-23.482;-46.500;2023-04-06T10:06:03;48.30;;;14.23;;
21014;SDS011;19207;-23.482;-46.500;2023-04-06T10:08:50;34.00;;;12.07;;
21014;SDS011;19207;-23.482;-46.500;2023-04-06T10:11:39;26.75;;;10.70;;
21014;SDS011;19207;-23.482;-46.500;2023-04-06T10:14:27;31.55;;;11.05;;
21014;SDS011;19207;-23.482;-46.500;2023-04-06T10:17:14;41.78;;;11.63;;
21014;SDS011;19207;-23.482;-46.500;2023-04-06T10:26:01;29.77;;;11.38;;
21014;SDS011;19207;-23.482;-46.500;2023-04-06T10:28:49;24.80;;;11.50;;
21014;SDS011;19207;-23.482;-46.500;2023-04-06T10:31:39;28.80;;;11.10;;
21014;SDS011;19207;-23.482;-46.500;2023-04-06T10:34:33;30.23;;;11.27;;
21014;SDS011;19207;-23.482;-46.500;2023-04-06T10:37:21;30.25;;;10.65;;
21014;SDS011;19207;-23.482;-46.500;2023-04-06T10:40:17;28.00;;;10.57;;
21014;SDS011;19207;-23.482;-46.500;2023-04-06T10:43:07;24.27;;;11.43;;
21014;SDS011;19207;-23.482;-46.500;2023-04-06T10:45:59;25.92;;;9.70;;
21014;SDS011;19207;-23.482;-46.500;2023-04-06T10:48:46;25.20;;;9.40;;
21014;SDS011;19207;-23.482;-46.500;2023-04-06T10:51:33;18.62;;;8.38;;
21014;SDS011;19207;-23.482;-46.500;2023-04-06T10:54:24;24.27;;;9.15;;
21014;SDS011;19207;-23.482;-46.500;2023-04-06T10:57:12;20.25;;;9.13;;
21014;SDS011;19207;-23.482;-46.500;2023-04-06T10:59:59;22.02;;;9.02;;
21014;SDS011;19207;-23.482;-46.500;2023-04-06T11:02:46;24.70;;;10.23;;
21014;SDS011;19207;-23.482;-46.500;2023-04-06T11:05:33;33.63;;;10.57;;
21014;SDS011;19207;-23.482;-46.500;2023-04-06T11:11:11;25.50;;;11.32;;
21014;SDS011;19207;-23.482;-46.500;2023-04-06T11:14:02;22.65;;;9.80;;
21014;SDS011;19207;-23.482;-46.500;2023-04-06T11:16:49;23.60;;;8.38;;
21014;SDS011;19207;-23.482;-46.500;2023-04-06T11:19:36;24.17;;;8.20;;
21014;SDS011;19207;-23.482;-46.500;2023-04-06T11:22:23;17.33;;;7.05;;
21014;SDS011;19207;-23.482;-46.500;2023-04-06T11:25:10;18.30;;;6.97;;
21014;SDS011;19207;-23.482;-46.500;2023-04-06T11:27:58;24.17;;;8.02;;
21014;SDS011;19207;-23.482;-46.500;2023-04-06T11:30:45;21.70;;;7.82;;
21014;SDS011;19207;-23.482;-46.500;2023-04-06T11:33:36;24.00;;;7.62;;
21014;SDS011;19207;-23.482;-46.500;2023-04-06T11:36:23;19.20;;;6.37;;
21014;SDS011;19207;-23.482;-46.500;2023-04-06T11:39:19;18.48;;;6.75;;
21014;SDS011;19207;-23.482;-46.500;2023-04-06T11:42:06;17.48;;;6.12;;
21014;SDS011;19207;-23.482;-46.500;2023-04-06T11:44:56;18.75;;;6.70;;
21014;SDS011;19207;-23.482;-46.500;2023-04-06T11:47:43;15.57;;;6.03;;
21014;SDS011;19207;-23.482;-46.500;2023-04-06T11:50:33;13.32;;;5.90;;
21014;SDS011;19207;-23.482;-46.500;2023-04-06T11:53:20;20.95;;;6.70;;
21014;SDS011;19207;-23.482;-46.500;2023-04-06T11:56:06;19.52;;;6.53;;
21014;SDS011;19207;-23.482;-46.500;2023-04-06T11:58:57;16.95;;;6.30;;
21014;SDS011;19207;-23.482;-46.500;2023-04-06T12:01:47;19.98;;;6.82;;
21014;SDS011;19207;-23.482;-46.500;2023-04-06T12:04:34;19.95;;;6.85;;
21014;SDS011;19207;-23.482;-46.500;2023-04-06T12:07:20;22.17;;;7.93;;
21014;SDS011;19207;-23.482;-46.500;2023-04-06T12:10:08;20.75;;;8.13;;
21014;SDS011;19207;-23.482;-46.500;2023-04-06T12:12:55;27.05;;;9.30;;
21014;SDS011;19207;-23.482;-46.500;2023-04-06T12:15:41;23.40;;;9.15;;
21014;SDS011;19207;-23.482;-46.500;2023-04-06T12:18:27;27.87;;;8.18;;
21014;SDS011;19207;-23.482;-46.500;2023-04-06T12:21:14;24.35;;;7.20;;
21014;SDS011;19207;-23.482;-46.500;2023-04-06T12:24:01;16.77;;;6.05;;
21014;SDS011;19207;-23.482;-46.500;2023-04-06T12:26:47;17.67;;;6.37;;
21014;SDS011;19207;-23.482;-46.500;2023-04-06T12:29:34;12.85;;;6.00;;
21014;SDS011;19207;-23.482;-46.500;2023-04-06T12:32:21;25.70;;;5.97;;
21014;SDS011;19207;-23.482;-46.500;2023-04-06T12:35:08;19.08;;;10.15;;
21014;SDS011;19207;-23.482;-46.500;2023-04-06T12:37:56;17.77;;;6.75;;
21014;SDS011;19207;-23.482;-46.500;2023-04-06T12:40:42;20.80;;;7.45;;
21014;SDS011;19207;-23.482;-46.500;2023-04-06T12:43:29;19.02;;;7.35;;
21014;SDS011;19207;-23.482;-46.500;2023-04-06T12:46:16;23.45;;;7.93;;
21014;SDS011;19207;-23.482;-46.500;2023-04-06T12:49:03;17.40;;;6.70;;
21014;SDS011;19207;-23.482;-46.500;2023-04-06T12:51:49;27.70;;;15.57;;
21014;SDS011;19207;-23.482;-46.500;2023-04-06T12:54:36;21.02;;;7.40;;
21014;SDS011;19207;-23.482;-46.500;2023-04-06T12:57:23;15.10;;;6.95;;
21014;SDS011;19207;-23.482;-46.500;2023-04-06T13:00:09;27.30;;;7.43;;
21014;SDS011;19207;-23.482;-46.500;2023-04-06T13:03:01;19.08;;;7.07;;
21014;SDS011;19207;-23.482;-46.500;2023-04-06T13:05:49;17.83;;;6.87;;
21014;SDS011;19207;-23.482;-46.500;2023-04-06T13:08:37;21.65;;;7.37;;
21014;SDS011;19207;-23.482;-46.500;2023-04-06T13:11:25;16.17;;;7.05;;
21014;SDS011;19207;-23.482;-46.500;2023-04-06T13:14:12;21.92;;;7.30;;
21014;SDS011;19207;-23.482;-46.500;2023-04-06T13:17:00;24.45;;;8.00;;
21014;SDS011;19207;-23.482;-46.500;2023-04-06T13:19:47;18.67;;;7.20;;
21014;SDS011;19207;-23.482;-46.500;2023-04-06T13:22:33;21.83;;;7.30;;
21014;SDS011;19207;-23.482;-46.500;2023-04-06T13:25:21;16.80;;;7.20;;
21014;SDS011;19207;-23.482;-46.500;2023-04-06T13:28:08;12.45;;;6.30;;
21014;SDS011;19207;-23.482;-46.500;2023-04-06T13:30:55;16.73;;;11.07;;
21014;SDS011;19207;-23.482;-46.500;2023-04-06T13:33:42;10.40;;;6.20;;
21014;SDS011;19207;-23.482;-46.500;2023-04-06T13:36:29;14.63;;;6.55;;
21014;SDS011;19207;-23.482;-46.500;2023-04-06T13:39:16;22.23;;;7.03;;
21014;SDS011;19207;-23.482;-46.500;2023-04-06T13:42:06;22.52;;;7.40;;
21014;SDS011;19207;-23.482;-46.500;2023-04-06T13:44:52;15.02;;;6.60;;
21014;SDS011;19207;-23.482;-46.500;2023-04-06T13:47:39;15.25;;;6.45;;
21014;SDS011;19207;-23.482;-46.500;2023-04-06T13:50:26;17.52;;;6.35;;
21014;SDS011;19207;-23.482;-46.500;2023-04-06T13:53:13;17.85;;;6.55;;
21014;SDS011;19207;-23.482;-46.500;2023-04-06T13:56:00;13.70;;;6.32;;
21014;SDS011;19207;-23.482;-46.500;2023-04-06T13:58:47;15.68;;;7.57;;
21014;SDS011;19207;-23.482;-46.500;2023-04-06T14:01:34;20.15;;;8.10;;
21014;SDS011;19207;-23.482;-46.500;2023-04-06T14:04:20;23.27;;;7.43;;
21014;SDS011;19207;-23.482;-46.500;2023-04-06T14:07:07;14.13;;;6.40;;
21014;SDS011;19207;-23.482;-46.500;2023-04-06T14:09:55;18.60;;;6.72;;
21014;SDS011;19207;-23.482;-46.500;2023-04-06T14:12:42;13.55;;;6.97;;
21014;SDS011;19207;-23.482;-46.500;2023-04-06T14:15:29;16.98;;;7.05;;
21014;SDS011;19207;-23.482;-46.500;2023-04-06T14:18:16;17.17;;;7.15;;
21014;SDS011;19207;-23.482;-46.500;2023-04-06T14:21:03;13.38;;;6.50;;
21014;SDS011;19207;-23.482;-46.500;2023-04-06T14:23:50;15.00;;;6.93;;
21014;SDS011;19207;-23.482;-46.500;2023-04-06T14:26:37;17.70;;;6.82;;
21014;SDS011;19207;-23.482;-46.500;2023-04-06T14:29:24;12.93;;;7.10;;
21014;SDS011;19207;-23.482;-46.500;2023-04-06T14:32:11;15.00;;;7.72;;
21014;SDS011;19207;-23.482;-46.500;2023-04-06T14:34:57;14.68;;;7.07;;
21014;SDS011;19207;-23.482;-46.500;2023-04-06T14:37:44;14.90;;;7.70;;
21014;SDS011;19207;-23.482;-46.500;2023-04-06T14:40:33;17.00;;;7.62;;
21014;SDS011;19207;-23.482;-46.500;2023-04-06T14:43:21;13.60;;;7.22;;
21014;SDS011;19207;-23.482;-46.500;2023-04-06T14:46:08;21.85;;;7.82;;
21014;SDS011;19207;-23.482;-46.500;2023-04-06T14:48:55;19.02;;;10.50;;
21014;SDS011;19207;-23.482;-46.500;2023-04-06T14:51:42;15.07;;;6.87;;
21014;SDS011;19207;-23.482;-46.500;2023-04-06T14:54:29;13.57;;;6.72;;
21014;SDS011;19207;-23.482;-46.500;2023-04-06T14:57:15;19.00;;;8.05;;
21014;SDS011;19207;-23.482;-46.500;2023-04-06T15:00:02;15.55;;;6.45;;
21014;SDS011;19207;-23.482;-46.500;2023-04-06T15:02:49;14.65;;;6.53;;
21014;SDS011;19207;-23.482;-46.500;2023-04-06T15:05:36;11.12;;;5.95;;
21014;SDS011;19207;-23.482;-46.500;2023-04-06T15:08:24;17.73;;;6.80;;
21014;SDS011;19207;-23.482;-46.500;2023-04-06T15:11:11;16.48;;;7.00;;
21014;SDS011;19207;-23.482;-46.500;2023-04-06T15:13:58;11.10;;;6.65;;
21014;SDS011;19207;-23.482;-46.500;2023-04-06T15:16:44;16.17;;;6.47;;
21014;SDS011;19207;-23.482;-46.500;2023-04-06T15:19:31;22.17;;;6.90;;
21014;SDS011;19207;-23.482;-46.500;2023-04-06T15:22:17;15.88;;;6.87;;
21014;SDS011;19207;-23.482;-46.500;2023-04-06T15:25:03;13.48;;;6.75;;
21014;SDS011;19207;-23.482;-46.500;2023-04-06T15:27:50;15.20;;;6.50;;
21014;SDS011;19207;-23.482;-46.500;2023-04-06T15:30:37;12.73;;;6.80;;
21014;SDS011;19207;-23.482;-46.500;2023-04-06T15:33:24;15.90;;;6.78;;
21014;SDS011;19207;-23.482;-46.500;2023-04-06T15:36:25;20.37;;;6.97;;
21014;SDS011;19207;-23.482;-46.500;2023-04-06T15:39:14;18.35;;;7.57;;
21014;SDS011;19207;-23.482;-46.500;2023-04-06T15:42:01;22.75;;;6.78;;
21014;SDS011;19207;-23.482;-46.500;2023-04-06T15:44:48;12.27;;;6.43;;
21014;SDS011;19207;-23.482;-46.500;2023-04-06T15:47:34;17.50;;;7.28;;
21014;SDS011;19207;-23.482;-46.500;2023-04-06T15:50:20;13.18;;;6.47;;
21014;SDS011;19207;-23.482;-46.500;2023-04-06T15:53:08;20.12;;;7.87;;
21014;SDS011;19207;-23.482;-46.500;2023-04-06T15:56:01;19.00;;;7.45;;
21014;SDS011;19207;-23.482;-46.500;2023-04-06T15:58:47;22.58;;;7.32;;
21014;SDS011;19207;-23.482;-46.500;2023-04-06T16:01:34;22.62;;;18.75;;
21014;SDS011;19207;-23.482;-46.500;2023-04-06T16:04:21;17.27;;;6.85;;
21014;SDS011;19207;-23.482;-46.500;2023-04-06T16:07:08;21.23;;;7.45;;
21014;SDS011;19207;-23.482;-46.500;2023-04-06T16:09:55;14.90;;;7.20;;
21014;SDS011;19207;-23.482;-46.500;2023-04-06T16:12:41;14.52;;;6.80;;
21014;SDS011;19207;-23.482;-46.500;2023-04-06T16:15:28;15.70;;;6.97;;
21014;SDS011;19207;-23.482;-46.500;2023-04-06T16:18:15;14.80;;;6.75;;